Time;durP1;ratioP1;P1;durP2;ratioP2;P2;SDS_P1;SDS_P2;PMS_P1;PMS_P2;Temp;Humidity;BMP_temperature;BMP_pressure;BME280_temperature;BME280_humidity;BME280_pressure;Samples;Min_cycle;Max_cycle;Signal;HPM_P1;HPM_P2
2021/12/14 00:02:28;;;;;;;64.90;18.50;;;3.90;99.90;;;;;;5115944;28;20190;-77
2021/12/14 00:04:58;;;;;;;60.20;18.20;;;3.90;99.90;;;;;;5115408;28;20659;-78
2021/12/14 00:07:25;;;;;;;58.90;18.03;;;3.90;99.90;;;;;;5115864;28;20184;-76
2021/12/14 00:10:00;;;;;;;59.13;18.27;;;3.90;99.90;;;;;;5115396;28;20191;-76
2021/12/14 00:12:37;;;;;;;62.60;17.53;;;3.90;99.90;;;;;;5115385;28;20614;-77
2021/12/14 00:15:08;;;;;;;54.40;18.50;;;4.00;99.90;;;;;;5115082;28;20182;-77
2021/12/14 00:17:40;;;;;;;60.60;19.83;;;3.90;99.90;;;;;;5115078;28;20177;-77
2021/12/14 00:20:16;;;;;;;55.53;18.90;;;3.90;99.90;;;;;;5114978;28;20235;-76
2021/12/14 00:25:31;;;;;;;53.90;18.70;;;4.00;99.90;;;;;;5115237;28;20192;-76
2021/12/14 00:28:00;;;;;;;51.80;18.23;;;3.90;99.90;;;;;;5115718;28;20599;-76
2021/12/14 00:30:27;;;;;;;62.27;18.53;;;4.00;99.90;;;;;;5114920;28;20662;-77
2021/12/14 00:32:54;;;;;;;55.07;18.43;;;3.90;99.90;;;;;;5114902;28;20217;-76
2021/12/14 00:35:23;;;;;;;56.60;18.80;;;3.90;99.90;;;;;;5114582;28;20201;-77
2021/12/14 00:37:52;;;;;;;58.73;17.47;;;4.00;99.90;;;;;;5114884;28;20257;-77
2021/12/14 00:40:22;;;;;;;56.53;18.87;;;3.90;99.90;;;;;;5114766;28;20190;-78
2021/12/14 00:42:49;;;;;;;60.90;19.20;;;3.90;99.90;;;;;;5114683;28;20695;-77
2021/12/14 00:45:19;;;;;;;56.80;20.27;;;4.00;99.90;;;;;;5114150;28;20197;-76
2021/12/14 00:47:46;;;;;;;53.17;20.07;;;3.90;99.90;;;;;;5114666;28;20250;-77
2021/12/14 00:50:14;;;;;;;60.47;20.47;;;3.90;99.90;;;;;;5114576;28;20197;-76
2021/12/14 00:52:43;;;;;;;73.07;20.57;;;4.00;99.90;;;;;;5113908;28;20259;-77
2021/12/14 00:55:15;;;;;;;61.77;20.23;;;3.90;99.90;;;;;;5114320;28;20217;-76
2021/12/14 00:57:42;;;;;;;68.57;20.07;;;3.90;99.90;;;;;;5114545;28;20192;-78
2021/12/14 01:00:13;;;;;;;66.70;18.97;;;3.90;99.90;;;;;;5114137;28;20197;-77
2021/12/14 01:02:40;;;;;;;63.93;20.60;;;4.00;99.90;;;;;;5113418;28;20223;-76
2021/12/14 01:05:11;;;;;;;54.87;19.67;;;4.00;99.90;;;;;;5114535;28;20190;-76
2021/12/14 01:07:39;;;;;;;85.30;20.90;;;4.00;99.90;;;;;;5114048;28;20592;-77
2021/12/14 01:10:22;;;;;;;61.77;20.00;;;4.00;99.90;;;;;;5114243;28;20263;-77
2021/12/14 01:12:53;;;;;;;66.23;19.67;;;4.00;99.90;;;;;;5114166;28;20246;-76
2021/12/14 01:15:29;;;;;;;88.93;20.97;;;4.00;99.90;;;;;;5113806;28;20225;-76
2021/12/14 01:18:15;;;;;;;83.47;20.53;;;4.00;99.90;;;;;;5113818;28;20193;-77
2021/12/14 01:20:45;;;;;;;74.60;20.87;;;3.90;99.90;;;;;;5114147;28;20192;-77
2021/12/14 01:23:19;;;;;;;77.07;23.27;;;4.00;99.90;;;;;;5114115;28;20290;-77
2021/12/14 01:25:51;;;;;;;79.67;21.20;;;4.00;99.90;;;;;;5114047;28;20216;-78
2021/12/14 01:28:22;;;;;;;96.47;22.73;;;4.00;99.90;;;;;;5113915;28;20182;-77
2021/12/14 01:31:00;;;;;;;100.17;22.90;;;4.00;99.90;;;;;;5113966;28;20233;-77
2021/12/14 01:33:28;;;;;;;74.50;20.93;;;3.90;99.90;;;;;;5113507;28;20240;-78
2021/12/14 01:35:56;;;;;;;108.13;22.17;;;4.00;99.90;;;;;;5113766;28;20198;-76
2021/12/14 01:38:35;;;;;;;101.57;21.77;;;4.00;99.90;;;;;;5113825;28;20247;-77
2021/12/14 01:41:08;;;;;;;105.47;24.80;;;4.00;99.90;;;;;;5114109;28;20195;-75
2021/12/14 01:43:41;;;;;;;98.87;22.97;;;4.00;99.90;;;;;;5113764;28;20232;-76
2021/12/14 01:46:13;;;;;;;97.23;21.53;;;4.00;99.90;;;;;;5113750;28;20181;-75
2021/12/14 01:48:41;;;;;;;102.33;21.67;;;4.00;99.90;;;;;;5113659;28;20181;-77
2021/12/14 01:51:12;;;;;;;93.47;21.60;;;4.00;99.90;;;;;;5112977;28;20189;-78
2021/12/14 01:53:42;;;;;;;95.27;21.40;;;4.00;99.90;;;;;;5113407;28;20255;-75
2021/12/14 01:56:14;;;;;;;119.80;23.27;;;4.00;99.90;;;;;;5113161;28;20179;-77
2021/12/14 01:58:45;;;;;;;116.43;23.57;;;4.00;99.90;;;;;;5113513;28;20238;-76
2021/12/14 02:01:16;;;;;;;105.93;23.47;;;4.00;99.90;;;;;;5113465;28;20185;-76
2021/12/14 02:03:47;;;;;;;107.97;22.80;;;4.00;99.90;;;;;;5113044;28;20281;-77
2021/12/14 02:06:17;;;;;;;104.43;27.60;;;4.00;99.90;;;;;;5112992;28;20720;-77
2021/12/14 02:08:45;;;;;;;99.70;23.93;;;4.00;99.90;;;;;;5113366;28;20183;-77
2021/12/14 02:11:13;;;;;;;101.23;23.83;;;4.00;99.90;;;;;;5112841;28;20247;-78
2021/12/14 02:13:45;;;;;;;90.67;21.97;;;4.00;99.90;;;;;;5112312;28;20282;-77
2021/12/14 02:16:15;;;;;;;91.27;22.23;;;3.90;99.90;;;;;;5112477;28;20632;-76
2021/12/14 02:18:45;;;;;;;89.60;22.80;;;3.90;99.90;;;;;;5113263;28;20232;-77
2021/12/14 02:21:16;;;;;;;97.73;22.93;;;3.90;99.90;;;;;;5112707;28;20249;-77
2021/12/14 02:23:46;;;;;;;101.40;23.47;;;3.90;99.90;;;;;;5112799;28;20186;-77
2021/12/14 02:26:17;;;;;;;109.57;23.97;;;3.90;99.90;;;;;;5113111;28;20185;-77
2021/12/14 02:28:45;;;;;;;123.87;28.70;;;3.90;99.90;;;;;;5113177;28;20183;-77
2021/12/14 02:31:15;;;;;;;101.63;23.63;;;3.90;99.90;;;;;;5112937;28;20198;-77
2021/12/14 02:33:46;;;;;;;110.33;22.83;;;3.90;99.90;;;;;;5112600;28;20211;-76
2021/12/14 02:36:20;;;;;;;100.57;23.63;;;3.90;99.90;;;;;;5112636;28;20229;-77
2021/12/14 02:38:52;;;;;;;98.47;25.37;;;4.00;99.90;;;;;;5112657;28;20271;-77
2021/12/14 02:41:20;;;;;;;112.87;28.73;;;4.00;99.90;;;;;;5112545;28;20179;-76
2021/12/14 02:43:50;;;;;;;116.73;27.83;;;4.00;99.90;;;;;;5112304;28;20652;-77
2021/12/14 02:46:21;;;;;;;145.03;29.93;;;4.00;99.90;;;;;;5112794;28;20235;-76
2021/12/14 02:48:51;;;;;;;115.93;27.90;;;4.00;99.90;;;;;;5112553;28;20177;-77
2021/12/14 02:51:23;;;;;;;133.37;26.73;;;4.00;99.90;;;;;;5112762;28;20190;-77
2021/12/14 02:53:52;;;;;;;122.97;26.83;;;4.10;99.90;;;;;;5112516;28;20202;-76
2021/12/14 02:56:24;;;;;;;113.83;25.50;;;4.00;99.90;;;;;;5112861;28;20196;-77
2021/12/14 02:58:57;;;;;;;123.27;26.03;;;4.10;99.90;;;;;;5112942;28;20184;-77
2021/12/14 03:01:24;;;;;;;114.97;24.73;;;4.10;99.90;;;;;;5112839;28;20175;-77
2021/12/14 03:03:51;;;;;;;114.33;25.00;;;4.10;99.90;;;;;;5112639;28;20194;-76
2021/12/14 03:06:24;;;;;;;127.77;25.00;;;4.10;99.90;;;;;;5112461;28;20248;-77
2021/12/14 03:09:07;;;;;;;132.23;24.93;;;4.10;99.90;;;;;;5112737;28;20265;-76
2021/12/14 03:11:35;;;;;;;132.57;26.00;;;4.10;99.90;;;;;;5112367;28;20186;-76
2021/12/14 03:14:02;;;;;;;105.57;23.33;;;4.10;99.90;;;;;;5112232;28;20218;-77
2021/12/14 03:16:32;;;;;;;108.57;22.80;;;4.20;99.90;;;;;;5112526;28;20562;-77
2021/12/14 03:19:01;;;;;;;153.97;27.50;;;4.10;99.90;;;;;;5112824;28;20193;-77
2021/12/14 03:21:33;;;;;;;147.37;26.27;;;4.10;99.90;;;;;;5112169;28;20655;-77
2021/12/14 03:24:05;;;;;;;160.97;24.60;;;4.10;99.90;;;;;;5111951;28;20638;-77
2021/12/14 03:26:35;;;;;;;150.37;27.10;;;4.10;99.90;;;;;;5114721;28;20182;-77
2021/12/14 03:29:07;;;;;;;142.30;25.33;;;4.10;99.90;;;;;;5115899;28;20197;-77
2021/12/14 03:31:36;;;;;;;133.83;25.67;;;4.10;99.90;;;;;;5116223;28;20222;-76
2021/12/14 03:34:11;;;;;;;128.10;23.83;;;4.10;99.90;;;;;;5115758;28;20214;-77
2021/12/14 03:36:44;;;;;;;133.47;24.80;;;4.10;99.90;;;;;;5116051;28;20626;-77
2021/12/14 03:39:14;;;;;;;148.93;24.90;;;4.10;99.90;;;;;;5116001;28;20182;-77
2021/12/14 03:41:44;;;;;;;156.17;25.57;;;4.10;99.90;;;;;;5116059;28;20217;-77
2021/12/14 03:44:13;;;;;;;115.60;25.13;;;4.10;99.90;;;;;;5116371;28;20186;-77
2021/12/14 03:46:46;;;;;;;189.20;26.30;;;4.10;99.90;;;;;;5116260;28;20243;-77
2021/12/14 03:49:14;;;;;;;152.93;25.80;;;4.10;99.90;;;;;;5115698;28;20584;-77
2021/12/14 03:51:45;;;;;;;170.77;26.97;;;4.10;99.90;;;;;;5115363;28;20647;-77
2021/12/14 03:54:15;;;;;;;152.80;26.33;;;4.10;99.90;;;;;;5115802;28;20214;-76
2021/12/14 03:56:43;;;;;;;154.07;24.77;;;4.10;99.90;;;;;;5115565;28;20645;-77
2021/12/14 03:59:10;;;;;;;173.40;26.33;;;4.10;99.90;;;;;;5115284;28;20231;-77
2021/12/14 04:01:40;;;;;;;171.97;25.93;;;4.20;99.90;;;;;;5116143;28;20192;-77
2021/12/14 04:04:16;;;;;;;161.57;27.17;;;4.10;99.90;;;;;;5115328;28;20682;-76
2021/12/14 04:06:47;;;;;;;161.07;26.03;;;4.10;99.90;;;;;;5115066;28;20171;-76
2021/12/14 04:09:17;;;;;;;164.13;27.40;;;4.20;99.90;;;;;;5113089;28;20208;-77
2021/12/14 04:11:45;;;;;;;205.87;27.37;;;4.20;99.90;;;;;;5115185;28;20708;-76
2021/12/14 04:14:13;;;;;;;174.80;28.90;;;4.20;99.90;;;;;;5114902;28;20214;-77
2021/12/14 04:16:42;;;;;;;179.27;27.60;;;4.20;99.90;;;;;;5115172;28;20655;-77
2021/12/14 04:19:12;;;;;;;162.47;27.90;;;4.20;99.90;;;;;;5115165;28;20592;-77
2021/12/14 04:21:42;;;;;;;200.27;28.83;;;4.20;99.90;;;;;;5115099;28;20715;-77
2021/12/14 04:24:12;;;;;;;208.13;32.93;;;4.20;99.90;;;;;;5115345;28;20198;-77
2021/12/14 04:26:44;;;;;;;216.80;30.43;;;4.20;99.90;;;;;;5115010;28;20633;-76
2021/12/14 04:29:12;;;;;;;171.17;29.33;;;4.30;99.90;;;;;;5115522;28;20269;-77
2021/12/14 04:31:40;;;;;;;218.00;31.10;;;4.30;99.90;;;;;;5115287;28;20198;-77
2021/12/14 04:34:07;;;;;;;226.27;32.40;;;4.40;99.90;;;;;;5114796;28;20674;-77
2021/12/14 04:36:35;;;;;;;204.47;29.67;;;4.40;99.90;;;;;;5114383;28;20202;-77
2021/12/14 04:39:29;;;;;;;222.70;36.67;;;4.40;99.90;;;;;;5113597;28;20619;-77
2021/12/14 04:53:28;;;;;;;210.40;28.47;;;4.50;99.90;;;;;;5114537;28;20275;-76
2021/12/14 04:55:57;;;;;;;182.77;27.77;;;4.40;99.90;;;;;;5114559;28;20215;-77
2021/12/14 04:58:31;;;;;;;180.50;27.60;;;4.40;99.90;;;;;;5114186;28;20652;-77
2021/12/14 05:01:01;;;;;;;207.07;34.13;;;4.40;99.90;;;;;;5114569;28;20184;-76
2021/12/14 05:03:31;;;;;;;227.60;35.10;;;4.40;99.90;;;;;;5114412;28;20240;-77
2021/12/14 05:06:13;;;;;;;205.67;28.83;;;4.40;99.90;;;;;;5114036;28;20655;-76
2021/12/14 05:11:26;;;;;;;223.20;29.37;;;4.50;99.90;;;;;;5114109;28;20223;-77
2021/12/14 05:14:01;;;;;;;245.17;35.17;;;4.50;99.90;;;;;;5113821;28;20595;-77
2021/12/14 05:16:30;;;;;;;295.30;43.73;;;4.50;99.90;;;;;;5114238;28;20242;-77
2021/12/14 05:19:00;;;;;;;313.33;39.77;;;4.50;99.90;;;;;;5113758;28;20197;-77
2021/12/14 05:21:29;;;;;;;229.07;34.67;;;4.50;99.90;;;;;;5114378;28;20207;-77
2021/12/14 05:23:57;;;;;;;234.00;40.97;;;4.60;99.90;;;;;;5113953;28;20250;-77
2021/12/14 05:26:24;;;;;;;258.77;39.63;;;4.60;99.90;;;;;;5114025;28;20191;-77
2021/12/14 05:29:02;;;;;;;233.23;37.93;;;4.60;99.90;;;;;;5119985;28;20657;-78
2021/12/14 05:31:31;;;;;;;282.03;45.13;;;4.60;99.90;;;;;;5122616;28;20646;-77
2021/12/14 05:33:57;;;;;;;362.93;44.53;;;4.60;99.90;;;;;;5113516;28;20202;-77
2021/12/14 05:36:25;;;;;;;263.70;37.33;;;4.70;99.90;;;;;;5113791;28;20203;-77
2021/12/14 05:39:03;;;;;;;259.20;37.47;;;4.60;99.90;;;;;;5113366;28;20242;-77
2021/12/14 05:44:20;;;;;;;244.73;34.63;;;4.70;99.90;;;;;;5113514;28;20252;-77
2021/12/14 05:46:51;;;;;;;271.37;37.43;;;4.70;99.90;;;;;;5113102;28;20193;-77
2021/12/14 05:49:23;;;;;;;235.83;32.73;;;4.70;99.90;;;;;;5113475;28;20179;-78
2021/12/14 05:51:54;;;;;;;232.73;34.47;;;4.80;99.90;;;;;;5113180;28;20539;-77
2021/12/14 05:54:23;;;;;;;255.97;35.60;;;4.80;99.90;;;;;;5113263;28;20547;-76
2021/12/14 05:56:52;;;;;;;216.67;30.73;;;4.80;99.90;;;;;;5113160;28;20544;-78
2021/12/14 05:59:21;;;;;;;245.13;38.63;;;4.80;99.90;;;;;;5113067;28;20716;-77
2021/12/14 06:01:51;;;;;;;227.43;30.63;;;4.80;99.90;;;;;;5113447;28;20247;-77
2021/12/14 06:04:19;;;;;;;231.03;34.27;;;4.90;99.90;;;;;;5113400;28;20244;-77
2021/12/14 06:06:49;;;;;;;204.33;30.83;;;4.80;99.90;;;;;;5113168;28;20187;-78
2021/12/14 06:09:18;;;;;;;220.07;31.77;;;4.80;99.90;;;;;;5092981;28;20183;-78
2021/12/14 06:11:48;;;;;;;200.33;32.40;;;4.80;99.90;;;;;;5092434;28;20602;-78
2021/12/14 06:14:17;;;;;;;268.20;43.93;;;4.80;99.90;;;;;;5092731;28;20191;-76
2021/12/14 06:16:46;;;;;;;254.27;42.13;;;4.70;99.90;;;;;;5105806;28;20197;-77
2021/12/14 06:19:19;;;;;;;176.70;29.10;;;4.70;99.90;;;;;;5113237;28;20195;-78
2021/12/14 06:21:48;;;;;;;193.80;29.60;;;4.70;99.90;;;;;;5112748;28;20174;-78
2021/12/14 06:24:16;;;;;;;166.23;31.30;;;4.70;99.90;;;;;;5112693;28;20195;-77
2021/12/14 06:26:46;;;;;;;183.40;31.57;;;4.60;99.90;;;;;;5112644;28;20194;-77
2021/12/14 06:29:16;;;;;;;254.73;35.57;;;4.60;99.90;;;;;;5113168;28;20183;-77
2021/12/14 06:31:43;;;;;;;234.03;31.07;;;4.60;99.90;;;;;;5112661;28;20202;-77
2021/12/14 06:34:13;;;;;;;228.10;32.20;;;4.60;99.90;;;;;;5112812;28;20530;-77
2021/12/14 06:37:14;;;;;;;252.10;32.70;;;4.60;99.90;;;;;;5112561;28;20588;-77
2021/12/14 06:40:01;;;;;;;297.00;34.93;;;4.60;99.90;;;;;;5089315;28;20193;-77
2021/12/14 06:42:29;;;;;;;268.17;34.07;;;4.60;99.90;;;;;;5121434;28;20700;-75
2021/12/14 06:45:10;;;;;;;247.87;36.77;;;4.60;99.90;;;;;;5118407;28;20194;-77
2021/12/14 06:47:38;;;;;;;277.73;38.60;;;4.60;99.90;;;;;;5092665;28;20522;-77
2021/12/14 06:50:10;;;;;;;321.90;47.57;;;4.60;99.90;;;;;;5092553;28;20252;-77
2021/12/14 06:52:38;;;;;;;381.77;85.03;;;4.70;99.90;;;;;;5093443;28;20186;-78
2021/12/14 06:55:08;;;;;;;346.63;61.27;;;4.70;99.90;;;;;;5092314;28;20213;-75
2021/12/14 06:57:43;;;;;;;317.70;53.50;;;4.70;99.90;;;;;;5100581;28;20223;-76
2021/12/14 07:00:11;;;;;;;288.53;47.27;;;4.70;99.90;;;;;;5099050;28;20202;-77
2021/12/14 07:02:47;;;;;;;277.20;42.97;;;4.70;99.90;;;;;;5100472;28;20195;-75
2021/12/14 07:05:22;;;;;;;298.70;41.97;;;4.70;99.90;;;;;;5103960;28;20251;-76
2021/12/14 07:07:50;;;;;;;290.57;43.90;;;4.80;99.90;;;;;;5114487;28;20189;-74
2021/12/14 07:10:24;;;;;;;245.47;39.60;;;4.80;99.90;;;;;;5122741;28;20223;-80
2021/12/14 07:12:59;;;;;;;263.60;42.10;;;4.80;99.90;;;;;;5124207;28;20211;-78
2021/12/14 07:15:35;;;;;;;281.57;43.10;;;4.80;99.90;;;;;;5118389;28;20214;-75
2021/12/14 07:18:04;;;;;;;266.83;46.83;;;4.80;99.90;;;;;;5121288;28;20231;-75
2021/12/14 07:20:33;;;;;;;243.43;44.33;;;4.90;99.90;;;;;;5123681;28;20195;-75
2021/12/14 07:23:16;;;;;;;235.77;37.50;;;4.90;99.90;;;;;;5123802;28;20248;-77
2021/12/14 07:25:47;;;;;;;206.40;36.27;;;4.90;99.90;;;;;;5121386;28;20241;-75
2021/12/14 07:28:16;;;;;;;165.60;35.47;;;4.90;99.90;;;;;;5118784;28;20594;-75
2021/12/14 07:30:49;;;;;;;165.13;36.93;;;4.90;99.90;;;;;;5109655;28;20614;-77
2021/12/14 07:33:35;;;;;;;143.47;35.60;;;4.90;99.90;;;;;;5121154;27;20186;-78
2021/12/14 07:36:04;;;;;;;181.87;38.00;;;4.90;99.90;;;;;;5132669;27;20231;-75
2021/12/14 07:38:43;;;;;;;172.03;37.90;;;4.90;99.90;;;;;;5118206;27;20273;-75
2021/12/14 07:41:16;;;;;;;154.93;35.63;;;5.00;99.90;;;;;;5119941;28;20201;-75
2021/12/14 07:43:50;;;;;;;143.00;36.13;;;5.00;99.90;;;;;;5119930;28;20187;-75
2021/12/14 07:46:30;;;;;;;128.70;35.67;;;5.00;99.90;;;;;;5122596;28;20247;-76
2021/12/14 07:49:00;;;;;;;129.93;36.33;;;5.00;99.90;;;;;;5116428;28;20183;-79
2021/12/14 07:51:31;;;;;;;133.13;42.27;;;5.00;99.90;;;;;;5115924;28;20179;-78
2021/12/14 07:54:12;;;;;;;137.90;34.37;;;5.10;99.90;;;;;;5115854;28;20183;-79
2021/12/14 07:56:43;;;;;;;126.40;32.87;;;5.10;99.90;;;;;;5115473;28;20218;-75
2021/12/14 07:59:22;;;;;;;105.67;31.47;;;5.10;99.90;;;;;;5117282;28;20231;-77
2021/12/14 08:01:53;;;;;;;116.83;31.43;;;5.10;99.90;;;;;;5117382;28;20289;-75
2021/12/14 08:04:20;;;;;;;101.03;31.07;;;5.10;99.90;;;;;;5115351;28;20224;-78
2021/12/14 08:06:54;;;;;;;120.10;35.33;;;5.10;99.90;;;;;;5119477;28;20195;-75
2021/12/14 08:09:45;;;;;;;103.07;34.87;;;5.20;99.90;;;;;;5115688;28;20183;-75
2021/12/14 08:12:32;;;;;;;115.50;32.07;;;5.20;99.90;;;;;;5120914;28;20277;-75
2021/12/14 08:15:10;;;;;;;94.40;32.20;;;5.20;99.90;;;;;;5127214;27;20301;-77
2021/12/14 08:17:39;;;;;;;108.77;34.30;;;5.20;99.90;;;;;;5121083;27;20186;-81
2021/12/14 08:20:09;;;;;;;107.83;32.97;;;5.20;99.90;;;;;;5125198;27;20204;-77
2021/12/14 08:22:42;;;;;;;116.93;33.97;;;5.30;99.90;;;;;;5136258;27;20182;-78
2021/12/14 08:25:13;;;;;;;113.10;36.03;;;5.30;99.90;;;;;;5138907;27;20206;-75
2021/12/14 08:27:42;;;;;;;120.37;35.47;;;5.40;99.90;;;;;;5137783;27;20179;-77
2021/12/14 08:30:16;;;;;;;117.73;35.43;;;5.40;99.90;;;;;;5135664;27;20194;-77
2021/12/14 08:32:43;;;;;;;114.93;36.83;;;5.40;99.90;;;;;;5137277;27;20702;-76
2021/12/14 08:35:13;;;;;;;102.90;33.40;;;5.40;99.90;;;;;;5135464;27;20270;-75
2021/12/14 08:37:44;;;;;;;93.53;29.90;;;5.50;99.90;;;;;;5120485;27;20239;-75
2021/12/14 08:40:17;;;;;;;95.03;29.50;;;5.50;99.90;;;;;;5116298;28;20216;-79
2021/12/14 08:42:52;;;;;;;90.10;29.53;;;5.60;99.90;;;;;;5115001;28;20226;-75
2021/12/14 08:45:26;;;;;;;87.97;28.60;;;5.60;99.90;;;;;;5120524;28;20179;-78
2021/12/14 08:48:05;;;;;;;88.27;29.30;;;5.60;99.90;;;;;;5114488;28;20218;-74
2021/12/14 08:50:36;;;;;;;93.53;28.97;;;5.70;99.90;;;;;;5114388;28;20182;-75
2021/12/14 08:53:11;;;;;;;101.97;30.87;;;5.70;99.90;;;;;;5120491;27;20183;-75
2021/12/14 08:55:43;;;;;;;89.03;28.17;;;5.70;99.90;;;;;;5129916;27;20296;-77
2021/12/14 08:58:11;;;;;;;104.13;30.17;;;5.80;99.90;;;;;;5125813;27;20178;-77
2021/12/14 09:00:43;;;;;;;91.77;27.37;;;5.80;99.90;;;;;;5119490;28;20255;-75
2021/12/14 09:03:15;;;;;;;103.07;31.07;;;5.80;99.90;;;;;;5114590;28;20179;-76
2021/12/14 09:05:46;;;;;;;88.63;28.20;;;5.70;99.90;;;;;;5115202;28;20187;-75
2021/12/14 09:08:14;;;;;;;96.53;36.33;;;5.70;99.90;;;;;;5115885;28;20179;-78
2021/12/14 09:10:49;;;;;;;98.30;31.87;;;5.70;99.90;;;;;;5119025;28;20648;-80
2021/12/14 09:13:22;;;;;;;92.33;29.37;;;5.70;99.90;;;;;;5119198;28;20223;-80
2021/12/14 09:15:54;;;;;;;92.13;27.43;;;5.80;99.90;;;;;;5119731;28;20215;-76
2021/12/14 09:18:34;;;;;;;94.20;28.93;;;5.80;99.90;;;;;;5110177;28;20187;-76
2021/12/14 09:21:06;;;;;;;85.03;28.17;;;5.70;99.90;;;;;;5108936;27;20549;-76
2021/12/14 09:23:39;;;;;;;92.67;30.03;;;5.80;99.90;;;;;;5108638;27;20250;-77
2021/12/14 09:26:18;;;;;;;101.67;34.13;;;5.80;99.90;;;;;;5103204;28;20721;-77
2021/12/14 09:28:49;;;;;;;108.47;34.77;;;5.80;99.90;;;;;;5100763;28;20213;-76
2021/12/14 09:31:20;;;;;;;100.73;31.37;;;5.80;99.90;;;;;;5104264;28;20192;-76
2021/12/14 09:33:48;;;;;;;103.73;32.43;;;5.80;99.90;;;;;;5120330;28;20200;-75
2021/12/14 09:36:16;;;;;;;98.13;30.57;;;5.80;99.90;;;;;;5095876;28;20202;-78
2021/12/14 09:38:50;;;;;;;91.87;27.47;;;5.80;99.90;;;;;;5109531;27;20223;-79
2021/12/14 09:41:23;;;;;;;79.47;26.23;;;5.80;99.90;;;;;;5117286;28;20191;-78
2021/12/14 09:43:53;;;;;;;76.03;26.63;;;5.80;99.90;;;;;;5085552;28;20181;-78
2021/12/14 09:46:24;;;;;;;88.20;26.57;;;5.80;99.90;;;;;;5086379;28;20653;-77
2021/12/14 09:49:01;;;;;;;83.73;26.10;;;5.80;99.90;;;;;;5085896;28;20190;-75
2021/12/14 09:51:37;;;;;;;74.50;23.77;;;5.90;99.90;;;;;;5085629;28;20291;-77
2021/12/14 09:54:08;;;;;;;75.67;24.40;;;5.80;99.90;;;;;;5085080;28;20192;-76
2021/12/14 09:56:43;;;;;;;75.07;24.63;;;5.80;99.90;;;;;;5085099;28;20196;-79
2021/12/14 09:59:17;;;;;;;88.20;27.93;;;5.80;99.90;;;;;;5086533;28;20594;-80
2021/12/14 10:01:56;;;;;;;92.87;32.97;;;5.80;99.90;;;;;;5082783;28;20641;-79
2021/12/14 10:04:25;;;;;;;80.00;27.27;;;5.80;99.90;;;;;;5083059;28;20180;-76
2021/12/14 10:06:52;;;;;;;89.17;28.53;;;5.80;99.90;;;;;;5072529;28;20201;-75
2021/12/14 10:09:23;;;;;;;88.90;30.97;;;5.80;99.90;;;;;;5072070;28;20663;-77
2021/12/14 10:12:16;;;;;;;88.27;29.60;;;5.80;99.90;;;;;;5072825;28;20682;-75
2021/12/14 10:14:44;;;;;;;71.97;27.47;;;5.80;99.90;;;;;;5072608;28;20203;-77
2021/12/14 10:17:15;;;;;;;101.53;30.77;;;5.80;99.90;;;;;;5071828;28;20685;-75
2021/12/14 10:19:47;;;;;;;91.73;31.00;;;5.90;99.90;;;;;;5071272;28;20192;-77
2021/12/14 10:22:21;;;;;;;88.97;31.63;;;5.90;99.90;;;;;;5071636;28;20258;-77
2021/12/14 10:24:50;;;;;;;84.33;28.37;;;5.90;99.90;;;;;;5073366;28;20190;-77
2021/12/14 10:27:24;;;;;;;97.60;26.60;;;5.90;99.90;;;;;;5075645;28;20189;-76
2021/12/14 10:30:01;;;;;;;80.90;26.83;;;6.00;99.90;;;;;;5071861;28;20242;-79
2021/12/14 10:32:35;;;;;;;81.40;27.47;;;6.00;99.90;;;;;;5072090;28;20184;-76
2021/12/14 10:35:08;;;;;;;78.90;28.37;;;6.00;99.90;;;;;;5072116;28;20626;-76
2021/12/14 10:37:51;;;;;;;81.70;28.07;;;6.10;99.90;;;;;;5076547;28;20258;-77
2021/12/14 10:43:12;;;;;;;77.63;31.17;;;6.00;99.90;;;;;;5105890;28;20360;-75
2021/12/14 10:45:42;;;;;;;87.63;29.27;;;6.10;99.90;;;;;;5116987;28;20179;-74
2021/12/14 10:48:11;;;;;;;83.53;29.47;;;6.10;99.90;;;;;;5116425;28;20209;-77
2021/12/14 10:50:38;;;;;;;89.73;30.10;;;6.10;99.90;;;;;;5116823;28;20205;-74
2021/12/14 10:53:09;;;;;;;96.23;30.27;;;6.10;99.90;;;;;;5116459;28;20202;-76
2021/12/14 10:55:39;;;;;;;89.27;29.47;;;6.20;99.90;;;;;;5116008;28;20188;-77
2021/12/14 10:58:08;;;;;;;86.83;34.83;;;6.20;99.90;;;;;;5116954;28;20266;-76
2021/12/14 11:00:41;;;;;;;80.60;34.30;;;6.20;99.90;;;;;;5116616;28;20195;-77
2021/12/14 11:03:11;;;;;;;102.00;36.63;;;6.20;99.90;;;;;;5116297;28;20212;-76
2021/12/14 11:05:40;;;;;;;96.73;34.77;;;6.20;99.90;;;;;;5114949;28;20198;-78
2021/12/14 11:08:32;;;;;;;77.83;27.43;;;6.20;99.90;;;;;;5114984;28;20196;-75
2021/12/14 11:11:02;;;;;;;68.60;26.13;;;6.20;99.90;;;;;;5115197;28;20191;-77
2021/12/14 11:13:40;;;;;;;79.80;29.97;;;6.20;99.90;;;;;;5116107;28;20259;-77
2021/12/14 11:16:15;;;;;;;71.67;24.63;;;6.30;99.90;;;;;;5116143;28;20741;-76
2021/12/14 11:18:44;;;;;;;70.43;24.73;;;6.30;99.90;;;;;;5115942;28;20185;-77
2021/12/14 11:21:14;;;;;;;65.10;23.20;;;6.30;99.90;;;;;;5116399;28;20256;-76
2021/12/14 11:23:43;;;;;;;69.67;23.53;;;6.30;99.90;;;;;;5115957;28;20709;-77
2021/12/14 11:26:18;;;;;;;61.30;22.30;;;6.30;99.90;;;;;;5116006;28;20195;-76
2021/12/14 11:28:52;;;;;;;56.70;21.37;;;6.40;99.90;;;;;;5116196;28;20194;-76
2021/12/14 11:31:23;;;;;;;62.37;23.77;;;6.40;99.90;;;;;;5116275;28;20187;-77
2021/12/14 11:33:54;;;;;;;65.03;24.93;;;6.40;99.90;;;;;;5115648;28;20183;-77
2021/12/14 11:36:31;;;;;;;69.63;26.20;;;6.50;99.90;;;;;;5115995;28;20250;-77
2021/12/14 11:39:03;;;;;;;78.77;30.70;;;6.60;99.90;;;;;;5115775;28;20211;-77
2021/12/14 11:41:44;;;;;;;71.43;27.50;;;6.70;99.90;;;;;;5115603;28;20183;-77
2021/12/14 11:44:20;;;;;;;71.17;30.50;;;6.70;99.90;;;;;;5115717;28;20228;-76
2021/12/14 11:47:02;;;;;;;70.93;28.80;;;6.80;99.90;;;;;;5115193;28;20182;-76
2021/12/14 11:49:50;;;;;;;63.40;25.13;;;6.80;99.90;;;;;;5115999;28;20237;-77
2021/12/14 11:52:34;;;;;;;62.03;23.50;;;6.80;99.90;;;;;;5115730;28;20192;-77
2021/12/14 11:55:15;;;;;;;60.60;24.10;;;6.80;99.90;;;;;;5115878;28;20193;-75
2021/12/14 11:57:44;;;;;;;60.10;23.07;;;6.80;99.90;;;;;;5115667;28;20324;-75
2021/12/14 12:00:20;;;;;;;70.50;25.30;;;6.90;99.90;;;;;;5115299;28;20201;-77
2021/12/14 12:02:47;;;;;;;61.00;25.33;;;6.90;99.90;;;;;;5115328;28;20584;-76
2021/12/14 12:05:17;;;;;;;58.83;22.57;;;6.90;99.90;;;;;;5115127;28;20194;-77
2021/12/14 12:10:38;;;;;;;57.00;24.93;;;6.90;99.90;;;;;;5115629;28;20226;-77
2021/12/14 12:13:05;;;;;;;62.07;25.63;;;6.90;99.90;;;;;;5115062;28;20177;-75
2021/12/14 12:15:39;;;;;;;54.83;25.70;;;6.90;99.90;;;;;;5115120;28;20200;-77
2021/12/14 12:18:06;;;;;;;56.73;25.20;;;6.90;99.90;;;;;;5116340;28;20249;-79
2021/12/14 12:20:37;;;;;;;56.67;25.27;;;6.90;99.90;;;;;;5114992;28;20596;-78
2021/12/14 12:23:07;;;;;;;59.63;26.53;;;6.90;99.90;;;;;;5124944;28;20207;-76
2021/12/14 12:25:38;;;;;;;59.77;27.17;;;7.00;99.90;;;;;;5113748;28;20197;-77
2021/12/14 12:28:07;;;;;;;63.73;27.83;;;6.90;99.90;;;;;;5099358;28;20534;-77
2021/12/14 12:30:44;;;;;;;59.13;26.83;;;6.90;99.90;;;;;;5093889;28;20238;-76
2021/12/14 12:33:24;;;;;;;56.77;25.33;;;7.00;99.90;;;;;;5110724;28;20533;-76
2021/12/14 12:35:57;;;;;;;56.37;26.87;;;6.90;99.90;;;;;;5114833;28;20253;-77
2021/12/14 12:38:32;;;;;;;51.47;23.77;;;6.90;99.90;;;;;;5114986;28;20185;-77
2021/12/14 12:41:06;;;;;;;61.20;27.63;;;6.90;99.90;;;;;;5114711;28;20184;-76
2021/12/14 12:43:37;;;;;;;75.23;37.13;;;7.00;99.90;;;;;;5114904;28;20284;-75
2021/12/14 12:46:16;;;;;;;75.57;36.50;;;7.00;99.90;;;;;;5113424;28;20183;-76
2021/12/14 12:49:00;;;;;;;72.07;41.43;;;7.00;99.90;;;;;;5111492;28;20191;-76
2021/12/14 12:51:59;;;;;;;73.23;39.53;;;7.00;99.90;;;;;;5125306;28;20211;-78
2021/12/14 12:57:32;;;;;;;51.57;25.37;;;7.00;99.90;;;;;;5114839;28;20244;-76
2021/12/14 13:00:23;;;;;;;52.60;25.47;;;7.10;99.90;;;;;;5121307;28;20199;-79
2021/12/14 13:02:54;;;;;;;53.63;25.07;;;7.10;99.90;;;;;;5116193;28;20192;-77
2021/12/14 13:05:28;;;;;;;63.80;31.53;;;7.10;99.90;;;;;;5110121;28;20186;-80
2021/12/14 13:08:02;;;;;;;71.80;32.50;;;7.10;99.90;;;;;;5115439;28;20204;-80
2021/12/14 13:10:37;;;;;;;53.73;27.97;;;7.20;99.90;;;;;;5114883;28;20206;-78
2021/12/14 13:13:12;;;;;;;48.63;24.03;;;7.20;99.90;;;;;;5113956;28;20185;-78
2021/12/14 13:15:47;;;;;;;46.30;22.50;;;7.20;99.90;;;;;;5112606;28;20192;-79
2021/12/14 13:18:32;;;;;;;56.47;24.67;;;7.20;99.90;;;;;;5111437;28;20208;-81
2021/12/14 13:21:27;;;;;;;45.40;23.67;;;7.20;99.90;;;;;;5113660;28;20420;-78
2021/12/14 13:24:06;;;;;;;44.30;23.53;;;7.20;99.90;;;;;;5092820;28;20216;-81
2021/12/14 13:26:41;;;;;;;54.73;26.20;;;7.20;99.90;;;;;;5113199;28;20196;-79